createdAt,value
2022-10-23T00:01:46.124Z,12.66
2022-10-23T00:04:17.919Z,12.66
2022-10-23T00:06:48.493Z,12.62
2022-10-23T00:09:23.016Z,12.60
2022-10-23T00:11:52.970Z,12.57
2022-10-23T00:14:24.457Z,12.54
2022-10-23T00:16:53.288Z,12.53
2022-10-23T00:19:21.499Z,12.52
2022-10-23T00:21:51.244Z,12.51
2022-10-23T00:24:19.969Z,12.51
2022-10-23T00:26:50.412Z,12.50
2022-10-23T00:29:19.009Z,12.50
2022-10-23T00:31:47.536Z,12.50
2022-10-23T00:34:16.027Z,12.50
2022-10-23T00:36:44.529Z,12.48
2022-10-23T00:39:14.101Z,12.44
2022-10-23T00:41:42.899Z,12.42
2022-10-23T00:45:08.844Z,12.36
2022-10-23T00:47:37.476Z,12.32
2022-10-23T00:50:07.399Z,12.33
2022-10-23T00:52:39.574Z,12.34
2022-10-23T00:55:09.868Z,12.33
2022-10-23T00:57:42.029Z,12.34
2022-10-23T01:00:16.214Z,12.34
2022-10-23T01:02:45.315Z,12.34
2022-10-23T01:05:14.971Z,12.35
2022-10-23T01:07:53.007Z,12.31
2022-10-23T01:10:34.903Z,12.29
2022-10-23T01:13:12.637Z,12.29
2022-10-23T01:15:49.684Z,12.30
2022-10-23T01:18:26.987Z,12.28
2022-10-23T01:21:01.357Z,12.28
2022-10-23T01:23:57.582Z,12.26
2022-10-23T01:26:50.823Z,12.26
2022-10-23T01:29:29.973Z,12.24
2022-10-23T01:32:05.173Z,12.22
2022-10-23T01:34:44.067Z,12.19
2022-10-23T01:37:16.662Z,12.15
2022-10-23T01:39:51.370Z,12.12
2022-10-23T01:42:26.036Z,12.12
2022-10-23T01:45:01.982Z,12.09
2022-10-23T01:47:39.602Z,12.07
2022-10-23T01:50:11.863Z,12.04
2022-10-23T01:52:43.032Z,11.99
2022-10-23T01:55:13.780Z,11.97
2022-10-23T01:57:45.879Z,11.92
2022-10-23T02:00:19.624Z,11.87
2022-10-23T02:02:55.536Z,11.85
2022-10-23T02:05:32.296Z,11.79
2022-10-23T02:08:02.879Z,11.77
2022-10-23T02:10:35.952Z,11.76
2022-10-23T02:13:09.752Z,11.75
2022-10-23T02:15:49.156Z,11.74
2022-10-23T02:18:33.999Z,11.71
2022-10-23T02:21:10.328Z,11.72
2022-10-23T02:23:46.761Z,11.70
2022-10-23T02:26:20.041Z,11.68
2022-10-23T02:28:56.809Z,11.67
2022-10-23T02:31:26.678Z,11.68
2022-10-23T02:33:55.463Z,11.68
2022-10-23T02:36:23.943Z,11.66
2022-10-23T02:38:52.858Z,11.64
2022-10-23T02:41:37.052Z,11.61
2022-10-23T02:44:40.052Z,11.60
2022-10-23T02:47:31.311Z,11.61
2022-10-23T02:50:10.426Z,11.63
2022-10-23T02:52:51.498Z,11.63
2022-10-23T02:55:32.756Z,11.60
2022-10-23T02:58:10.427Z,11.59
2022-10-23T03:00:51.585Z,11.57
2022-10-23T03:03:27.911Z,11.57
2022-10-23T03:05:56.944Z,11.57
2022-10-23T03:08:25.863Z,11.58
2022-10-23T03:10:54.472Z,11.57
2022-10-23T03:13:24.983Z,11.56
2022-10-23T03:15:54.264Z,11.54
2022-10-23T03:18:23.828Z,11.53
2022-10-23T03:20:53.378Z,11.52
2022-10-23T03:23:23.938Z,11.50
2022-10-23T03:25:53.190Z,11.50
2022-10-23T03:28:35.380Z,11.49
2022-10-23T03:31:04.549Z,11.48
2022-10-23T03:33:34.434Z,11.48
2022-10-23T03:36:11.342Z,11.45
2022-10-23T03:38:39.628Z,11.42
2022-10-23T03:41:08.247Z,11.41
2022-10-23T03:43:36.831Z,11.40
2022-10-23T03:46:09.144Z,11.38
2022-10-23T03:48:39.160Z,11.36
2022-10-23T03:51:07.949Z,11.34
2022-10-23T03:53:36.522Z,11.29
2022-10-23T03:56:05.956Z,11.27
2022-10-23T03:58:35.072Z,11.23
2022-10-23T04:01:03.690Z,11.21
2022-10-23T04:03:32.028Z,11.15
2022-10-23T04:06:01.664Z,11.13
2022-10-23T04:08:30.233Z,11.12
2022-10-23T04:10:58.738Z,11.08
2022-10-23T04:13:36.618Z,11.04
2022-10-23T04:16:05.688Z,11.01
2022-10-23T04:18:33.929Z,11.00
2022-10-23T04:21:03.531Z,10.96
2022-10-23T04:23:32.235Z,10.94
2022-10-23T04:26:01.098Z,10.91
2022-10-23T04:28:29.680Z,10.90
2022-10-23T04:30:58.226Z,10.88
2022-10-23T04:33:26.971Z,10.86
2022-10-23T04:35:55.464Z,10.83
2022-10-23T04:38:26.103Z,10.82
2022-10-23T04:40:54.683Z,10.82
2022-10-23T04:43:24.196Z,10.82
2022-10-23T04:45:52.533Z,10.81
2022-10-23T04:48:25.490Z,10.79
2022-10-23T04:51:15.555Z,10.79
2022-10-23T04:54:02.160Z,10.77
2022-10-23T04:56:45.581Z,10.77
2022-10-23T04:59:18.264Z,10.78
2022-10-23T05:01:47.380Z,10.79
2022-10-23T05:04:15.983Z,10.79
2022-10-23T05:07:10.130Z,10.80
2022-10-23T05:09:50.564Z,10.81
2022-10-23T05:12:33.545Z,10.81
2022-10-23T05:15:02.082Z,10.82
2022-10-23T05:17:35.766Z,10.82
2022-10-23T05:20:13.216Z,10.83
2022-10-23T05:22:43.898Z,10.80
2022-10-23T05:25:14.694Z,10.78
2022-10-23T05:27:49.392Z,10.75
2022-10-23T05:30:18.778Z,10.75
2022-10-23T05:32:47.480Z,10.73
2022-10-23T05:35:20.501Z,10.73
2022-10-23T05:37:52.045Z,10.74
2022-10-23T05:40:30.023Z,10.75
2022-10-23T05:43:03.435Z,10.76
2022-10-23T05:45:57.792Z,10.75
2022-10-23T05:48:50.758Z,10.77
2022-10-23T05:51:57.695Z,10.78
2022-10-23T05:55:01.355Z,10.77
2022-10-23T05:57:53.560Z,10.74
2022-10-23T06:00:33.852Z,10.72
2022-10-23T06:03:22.455Z,10.67
2022-10-23T06:05:51.405Z,10.65
2022-10-23T06:08:24.514Z,10.65
2022-10-23T06:10:53.241Z,10.64
2022-10-23T06:13:23.099Z,10.63
2022-10-23T06:15:51.688Z,10.65
2022-10-23T06:18:26.033Z,10.66
2022-10-23T06:21:02.519Z,10.68
2022-10-23T06:23:33.421Z,10.70
2022-10-23T06:26:19.179Z,10.71
2022-10-23T06:29:11.623Z,10.76
2022-10-23T06:31:42.667Z,10.81
2022-10-23T06:34:13.388Z,10.87
2022-10-23T06:36:42.665Z,10.91
2022-10-23T06:39:36.766Z,10.93
2022-10-23T06:42:12.050Z,10.94
2022-10-23T06:45:10.727Z,10.97
2022-10-23T06:47:57.996Z,10.99
2022-10-23T06:50:30.957Z,11.00
2022-10-23T06:53:01.104Z,11.03
2022-10-23T06:55:30.741Z,11.05
2022-10-23T06:57:59.368Z,11.06
2022-10-23T07:00:29.106Z,11.09
2022-10-23T07:02:57.890Z,11.12
2022-10-23T07:05:26.883Z,11.12
2022-10-23T07:07:55.100Z,11.17
2022-10-23T07:10:27.410Z,11.24
2022-10-23T07:13:01.180Z,11.35
2022-10-23T07:15:53.987Z,11.56
2022-10-23T07:18:26.384Z,11.71
2022-10-23T07:21:13.619Z,11.85
2022-10-23T07:23:42.638Z,11.97
2022-10-23T07:26:15.404Z,12.07
2022-10-23T07:28:46.322Z,12.15
2022-10-23T07:31:18.825Z,12.24
2022-10-23T07:34:06.377Z,12.30
2022-10-23T07:36:35.192Z,12.38
2022-10-23T07:39:03.472Z,12.52
2022-10-23T07:41:32.567Z,12.67
2022-10-23T07:44:00.784Z,12.78
2022-10-23T07:46:30.624Z,12.88
2022-10-23T07:48:59.051Z,12.95
2022-10-23T07:51:27.378Z,12.99
2022-10-23T07:54:00.834Z,12.99
2022-10-23T07:56:52.226Z,13.00
2022-10-23T07:59:23.379Z,13.02
2022-10-23T08:01:56.679Z,13.02
2022-10-23T08:04:31.363Z,13.02
2022-10-23T08:07:10.009Z,13.01
2022-10-23T08:09:43.310Z,13.17
2022-10-23T08:12:11.624Z,13.35
2022-10-23T08:14:39.968Z,13.56
2022-10-23T08:17:11.338Z,13.84
2022-10-23T08:20:02.656Z,14.20
2022-10-23T08:22:38.969Z,14.56
2022-10-23T08:25:08.239Z,14.86
2022-10-23T08:27:37.794Z,15.15
2022-10-23T08:30:08.206Z,15.42
2022-10-23T08:32:38.239Z,15.63
2022-10-23T08:35:08.680Z,15.89
2022-10-23T08:37:38.251Z,16.18
2022-10-23T08:40:08.403Z,16.47
2022-10-23T08:43:21.131Z,16.79
2022-10-23T08:46:13.997Z,17.11
2022-10-23T08:49:25.209Z,17.38
2022-10-23T08:52:14.244Z,17.51
2022-10-23T08:55:01.844Z,17.64
2022-10-23T08:57:40.045Z,17.70
2022-10-23T09:00:16.955Z,17.72
2022-10-23T09:02:47.723Z,17.64
2022-10-23T09:05:26.192Z,17.59
2022-10-23T09:08:20.429Z,17.58
2022-10-23T09:11:07.536Z,17.61
2022-10-23T09:13:56.605Z,17.61
2022-10-23T09:16:49.996Z,17.89
2022-10-23T09:19:21.566Z,18.30
2022-10-23T09:21:51.811Z,18.63
2022-10-23T09:24:24.273Z,18.79
2022-10-23T09:26:54.608Z,18.83
2022-10-23T09:29:27.292Z,18.85
2022-10-23T09:31:57.977Z,18.90
2022-10-23T09:34:28.542Z,19.02
2022-10-23T09:37:00.705Z,19.14
2022-10-23T09:39:32.316Z,19.10
2022-10-23T09:42:14.578Z,19.01
2022-10-23T09:44:50.676Z,18.89
2022-10-23T09:47:22.617Z,18.79
2022-10-23T09:49:53.237Z,18.65
2022-10-23T09:52:31.575Z,18.55
2022-10-23T09:55:02.222Z,18.43
2022-10-23T09:57:33.728Z,18.28
2022-10-23T10:00:07.685Z,18.11
2022-10-23T10:02:43.900Z,17.93
2022-10-23T10:05:37.553Z,17.78
2022-10-23T10:08:22.339Z,17.70
2022-10-23T10:10:55.317Z,17.59
2022-10-23T10:13:53.767Z,17.62
2022-10-23T10:16:33.570Z,17.73
2022-10-23T10:19:16.541Z,17.79
2022-10-23T10:21:53.474Z,17.86
2022-10-23T10:24:33.352Z,17.90
2022-10-23T10:27:10.974Z,17.88
2022-10-23T10:29:57.127Z,17.83
2022-10-23T10:32:39.640Z,17.79
2022-10-23T10:35:38.620Z,17.82
2022-10-23T10:38:33.419Z,17.86
2022-10-23T10:41:30.998Z,17.88
2022-10-23T10:44:30.140Z,17.88
2022-10-23T10:47:06.770Z,17.89
2022-10-23T10:49:48.300Z,17.90
2022-10-23T10:52:45.304Z,17.96
2022-10-23T10:55:26.244Z,18.07
2022-10-23T10:58:02.393Z,18.40
2022-10-23T11:00:34.427Z,18.89
2022-10-23T11:03:13.924Z,19.49
2022-10-23T11:05:45.818Z,19.86
2022-10-23T11:08:20.570Z,20.14
2022-10-23T11:10:54.488Z,20.49
2022-10-23T11:13:29.587Z,20.74
2022-10-23T11:16:02.737Z,20.80
2022-10-23T11:18:33.502Z,20.74
2022-10-23T11:21:16.532Z,20.79
2022-10-23T11:24:26.759Z,20.88
2022-10-23T11:27:14.483Z,20.82
2022-10-23T11:30:23.878Z,20.74
2022-10-23T11:33:42.587Z,20.69
2022-10-23T11:36:18.461Z,20.64
2022-10-23T11:38:50.555Z,20.61
2022-10-23T11:41:25.518Z,20.82
2022-10-23T11:44:01.512Z,21.46
2022-10-23T11:46:38.094Z,21.91
2022-10-23T11:49:20.546Z,22.06
2022-10-23T11:51:48.864Z,22.48
2022-10-23T11:54:27.139Z,22.75
2022-10-23T11:57:10.688Z,22.85
2022-10-23T11:59:53.659Z,23.11
2022-10-23T12:02:32.087Z,23.30
2022-10-23T12:05:06.748Z,23.69
2022-10-23T12:07:39.094Z,24.23
2022-10-23T12:10:20.188Z,24.76
2022-10-23T12:12:58.792Z,25.20
2022-10-23T12:15:28.134Z,25.56
2022-10-23T12:18:09.841Z,25.93
2022-10-23T12:20:45.848Z,26.16
2022-10-23T12:23:48.388Z,26.63
2022-10-23T12:26:29.951Z,26.96
2022-10-23T12:29:09.949Z,27.17
2022-10-23T12:31:51.326Z,26.93
2022-10-23T12:34:35.720Z,26.42
2022-10-23T12:37:19.980Z,26.05
2022-10-23T12:39:55.506Z,25.90
2022-10-23T12:42:26.609Z,25.96
2022-10-23T12:45:02.359Z,26.03
2022-10-23T12:47:31.395Z,26.07
2022-10-23T12:50:01.025Z,26.02
2022-10-23T12:52:29.363Z,25.89
2022-10-23T12:54:59.577Z,25.73
2022-10-23T12:57:31.260Z,25.58
2022-10-23T13:00:04.486Z,25.32
2022-10-23T13:02:33.807Z,25.13
2022-10-23T13:05:11.397Z,25.03
2022-10-23T13:07:46.227Z,24.94
2022-10-23T13:10:19.232Z,24.71
2022-10-23T13:12:57.853Z,24.45
2022-10-23T13:15:27.140Z,24.24
2022-10-23T13:18:06.984Z,24.08
2022-10-23T13:20:40.405Z,23.96
2022-10-23T13:23:18.949Z,23.83
2022-10-23T13:25:55.620Z,23.63
2022-10-23T13:28:27.855Z,23.43
2022-10-23T13:31:04.795Z,23.27
2022-10-23T13:33:37.112Z,23.14
2022-10-23T13:36:22.287Z,22.97
2022-10-23T13:39:03.367Z,22.81
2022-10-23T13:41:39.088Z,22.69
2022-10-23T13:44:07.884Z,22.67
2022-10-23T13:46:36.059Z,22.66
2022-10-23T13:49:04.576Z,22.63
2022-10-23T13:51:42.534Z,22.55
2022-10-23T13:54:16.895Z,22.41
2022-10-23T13:56:46.032Z,22.25
2022-10-23T13:59:15.068Z,22.10
2022-10-23T14:01:44.856Z,21.99
2022-10-23T14:04:14.675Z,21.92
2022-10-23T14:06:44.996Z,21.84
2022-10-23T14:09:16.397Z,21.78
2022-10-23T14:11:45.872Z,21.72
2022-10-23T14:14:14.176Z,21.69
2022-10-23T14:16:42.758Z,21.67
2022-10-23T14:19:12.552Z,21.64
2022-10-23T14:21:41.067Z,21.61
2022-10-23T14:24:11.296Z,21.58
2022-10-23T14:26:39.609Z,21.53
2022-10-23T14:29:12.389Z,21.49
2022-10-23T14:31:47.203Z,21.43
2022-10-23T14:34:15.383Z,21.37
2022-10-23T14:36:50.846Z,21.29
2022-10-23T14:39:26.277Z,21.19
2022-10-23T14:41:54.755Z,21.12
2022-10-23T14:44:23.311Z,21.06
2022-10-23T14:46:51.980Z,21.02
2022-10-23T14:49:20.188Z,20.95
2022-10-23T14:51:48.677Z,20.90
2022-10-23T14:54:17.450Z,20.87
2022-10-23T14:56:47.046Z,20.86
2022-10-23T14:59:15.250Z,20.88
2022-10-23T15:01:48.465Z,20.91
2022-10-23T15:04:17.064Z,20.95
2022-10-23T15:06:46.289Z,20.95
2022-10-23T15:09:15.049Z,20.93
2022-10-23T15:11:43.665Z,20.89
2022-10-23T15:14:14.018Z,20.82
2022-10-23T15:16:42.576Z,20.73
2022-10-23T15:19:15.300Z,20.65
2022-10-23T15:21:47.561Z,20.57
2022-10-23T15:24:16.734Z,20.49
2022-10-23T15:26:45.326Z,20.42
2022-10-23T15:29:15.712Z,20.36
2022-10-23T15:31:48.876Z,20.32
2022-10-23T15:34:20.224Z,20.26
2022-10-23T15:36:49.898Z,20.20
2022-10-23T15:39:20.499Z,20.16
2022-10-23T15:41:50.959Z,20.10
2022-10-23T15:44:23.587Z,20.03
2022-10-23T15:46:52.563Z,19.96
2022-10-23T15:49:21.451Z,19.90
2022-10-23T15:51:49.874Z,19.82
2022-10-23T15:54:19.795Z,19.76
2022-10-23T15:56:51.493Z,19.69
2022-10-23T15:59:24.012Z,19.62
2022-10-23T16:01:53.265Z,19.54
2022-10-23T16:04:21.909Z,19.47
2022-10-23T16:06:50.393Z,19.39
2022-10-23T16:09:19.050Z,19.32
2022-10-23T16:11:47.590Z,19.25
2022-10-23T16:14:17.791Z,19.19
2022-10-23T16:16:47.519Z,19.12
2022-10-23T16:19:15.807Z,19.06
2022-10-23T16:21:44.028Z,19.02
2022-10-23T16:24:12.620Z,18.95
2022-10-23T16:26:41.427Z,18.91
2022-10-23T16:29:10.485Z,18.86
2022-10-23T16:31:38.786Z,18.81
2022-10-23T16:34:08.340Z,18.78
2022-10-23T16:36:38.904Z,18.74
2022-10-23T16:39:17.740Z,18.69
2022-10-23T16:42:05.297Z,18.67
2022-10-23T16:44:57.692Z,18.63
2022-10-23T16:47:26.344Z,18.60
2022-10-23T16:49:55.872Z,18.59
2022-10-23T16:52:24.703Z,18.58
2022-10-23T16:54:53.239Z,18.55
2022-10-23T16:57:21.542Z,18.55
2022-10-23T16:59:49.725Z,18.53
2022-10-23T17:02:18.439Z,18.51
2022-10-23T17:04:47.088Z,18.51
2022-10-23T17:07:16.738Z,18.49
2022-10-23T17:09:46.524Z,18.47
2022-10-23T17:12:15.235Z,18.45
2022-10-23T17:14:43.977Z,18.42
2022-10-23T17:17:13.540Z,18.39
2022-10-23T17:19:46.264Z,18.33
2022-10-23T17:22:16.957Z,18.09
2022-10-23T17:24:48.705Z,17.87
2022-10-23T17:27:20.151Z,17.70
2022-10-23T17:29:48.612Z,17.59
2022-10-23T17:32:17.254Z,17.53
2022-10-23T17:34:46.561Z,17.49
2022-10-23T17:37:17.166Z,17.48
2022-10-23T17:39:45.733Z,17.45
2022-10-23T17:42:14.249Z,17.41
2022-10-23T17:44:42.489Z,17.40
2022-10-23T17:47:10.729Z,17.37
2022-10-23T17:49:41.598Z,17.27
2022-10-23T17:52:14.869Z,17.06
2022-10-23T17:54:44.475Z,16.88
2022-10-23T17:57:12.676Z,16.77
2022-10-23T17:59:40.960Z,16.68
2022-10-23T18:02:10.934Z,16.63
2022-10-23T18:04:39.206Z,16.58
2022-10-23T18:07:07.443Z,16.52
2022-10-23T18:09:35.731Z,16.49
2022-10-23T18:12:05.453Z,16.47
2022-10-23T18:14:37.244Z,16.45
2022-10-23T18:17:05.895Z,16.42
2022-10-23T18:19:34.407Z,16.39
2022-10-23T18:22:02.869Z,16.35
2022-10-23T18:24:32.086Z,16.32
2022-10-23T18:27:00.550Z,16.32
2022-10-23T18:29:30.294Z,16.34
2022-10-23T18:31:58.675Z,16.36
2022-10-23T18:34:27.304Z,16.38
2022-10-23T18:36:56.470Z,16.40
2022-10-23T18:39:26.507Z,16.41
2022-10-23T18:41:57.156Z,16.38
2022-10-23T18:44:28.951Z,16.33
2022-10-23T18:47:00.753Z,16.30
2022-10-23T18:49:29.915Z,16.27
2022-10-23T18:51:58.714Z,16.24
2022-10-23T18:54:27.311Z,16.22
2022-10-23T18:56:55.828Z,16.21
2022-10-23T18:59:24.405Z,16.21
2022-10-23T19:01:52.790Z,16.21
2022-10-23T19:04:22.794Z,16.21
2022-10-23T19:06:53.102Z,16.24
2022-10-23T19:09:21.758Z,16.25
2022-10-23T19:11:50.505Z,16.25
2022-10-23T19:14:18.735Z,16.25
2022-10-23T19:16:58.539Z,16.26
2022-10-23T19:19:32.576Z,16.26
2022-10-23T19:22:02.845Z,16.24
2022-10-23T19:24:38.033Z,16.24
2022-10-23T19:27:07.282Z,16.22
2022-10-23T19:29:38.825Z,16.21
2022-10-23T19:32:07.677Z,16.22
2022-10-23T19:34:37.533Z,16.24
2022-10-23T19:37:06.522Z,16.26
2022-10-23T19:39:34.783Z,16.29
2022-10-23T19:42:03.124Z,16.30
2022-10-23T19:44:31.878Z,16.29
2022-10-23T19:47:00.418Z,16.29
2022-10-23T19:49:28.680Z,16.27
2022-10-23T19:51:58.263Z,16.27
2022-10-23T19:54:26.476Z,16.25
2022-10-23T19:56:56.175Z,16.24
2022-10-23T19:59:25.070Z,16.22
2022-10-23T20:01:53.662Z,16.20
2022-10-23T20:04:21.896Z,16.18
2022-10-23T20:06:50.511Z,16.16
2022-10-23T20:09:20.079Z,16.15
2022-10-23T20:11:49.201Z,16.14
2022-10-23T20:14:19.040Z,16.16
2022-10-23T20:16:52.229Z,16.15
2022-10-23T20:19:23.467Z,16.13
2022-10-23T20:21:52.134Z,16.12
2022-10-23T20:24:22.399Z,16.10
2022-10-23T20:26:53.531Z,16.09
2022-10-23T20:29:23.125Z,16.07
2022-10-23T20:31:52.239Z,16.05
2022-10-23T20:34:20.750Z,16.06
2022-10-23T20:36:50.511Z,16.05
2022-10-23T20:39:25.377Z,16.05
2022-10-23T20:41:55.459Z,16.06
2022-10-23T20:44:24.547Z,16.07
2022-10-23T20:46:53.444Z,16.08
2022-10-23T20:49:22.368Z,16.09
2022-10-23T20:51:55.184Z,16.09
2022-10-23T20:54:27.511Z,16.10
2022-10-23T20:56:57.485Z,16.09
2022-10-23T20:59:26.246Z,16.10
2022-10-23T21:01:56.294Z,16.10
2022-10-23T21:04:29.112Z,16.11
2022-10-23T21:07:16.431Z,16.10
2022-10-23T21:09:46.333Z,16.11
2022-10-23T21:12:15.016Z,16.11
2022-10-23T21:14:43.459Z,16.12
2022-10-23T21:17:14.127Z,16.15
2022-10-23T21:19:42.659Z,16.16
2022-10-23T21:22:11.176Z,16.18
2022-10-23T21:24:39.415Z,16.19
2022-10-23T21:27:08.976Z,16.20
2022-10-23T21:29:37.499Z,16.22
2022-10-23T21:32:06.236Z,16.23
2022-10-23T21:34:34.794Z,16.25
2022-10-23T21:37:13.591Z,16.26
2022-10-23T21:39:43.313Z,16.27
2022-10-23T21:42:13.753Z,16.28
2022-10-23T21:44:42.220Z,16.29
2022-10-23T21:47:10.664Z,16.29
2022-10-23T21:49:39.121Z,16.29
2022-10-23T21:52:07.393Z,16.30
2022-10-23T21:54:35.954Z,16.30
2022-10-23T21:57:04.538Z,16.29
2022-10-23T21:59:36.023Z,16.29
2022-10-23T22:02:04.660Z,16.31
2022-10-23T22:04:33.387Z,16.30
2022-10-23T22:07:02.811Z,16.31
2022-10-23T22:09:32.039Z,16.31
2022-10-23T22:12:01.304Z,16.31
2022-10-23T22:14:29.688Z,16.28
2022-10-23T22:16:59.457Z,16.27
2022-10-23T22:19:27.946Z,16.25
2022-10-23T22:21:56.732Z,16.26
2022-10-23T22:24:25.576Z,16.24
2022-10-23T22:26:55.916Z,16.22
2022-10-23T22:29:27.684Z,16.21
2022-10-23T22:31:56.665Z,16.21
2022-10-23T22:37:17.976Z,16.23
2022-10-23T22:39:46.559Z,16.23
2022-10-23T22:42:14.748Z,16.22
2022-10-23T22:44:43.231Z,16.20
2022-10-23T22:47:11.520Z,16.18
2022-10-23T22:49:41.045Z,16.16
2022-10-23T22:52:09.277Z,16.16
2022-10-23T22:54:37.458Z,16.16
2022-10-23T22:57:06.024Z,16.17
2022-10-23T22:59:34.511Z,16.17
2022-10-23T23:02:02.831Z,16.14
2022-10-23T23:04:39.204Z,16.11
2022-10-23T23:07:10.024Z,16.10
2022-10-23T23:09:40.065Z,16.11
2022-10-23T23:12:11.378Z,16.10
2022-10-23T23:14:40.264Z,16.10
2022-10-23T23:17:09.769Z,16.08
2022-10-23T23:19:38.649Z,16.07
2022-10-23T23:22:08.590Z,16.07
2022-10-23T23:24:37.146Z,16.05
2022-10-23T23:27:05.879Z,16.04
2022-10-23T23:29:34.895Z,16.02
2022-10-23T23:32:06.008Z,16.00
2022-10-23T23:34:34.360Z,15.96
2022-10-23T23:37:02.549Z,15.95
2022-10-23T23:39:32.174Z,15.95
2022-10-23T23:42:00.759Z,15.94
2022-10-23T23:44:29.098Z,15.95
2022-10-23T23:46:57.584Z,15.94
2022-10-23T23:49:26.093Z,15.94
2022-10-23T23:51:54.312Z,15.95
2022-10-23T23:54:22.565Z,15.98
2022-10-23T23:56:52.127Z,15.98
2022-10-23T23:59:20.301Z,16.00
